createdAt,value
2017-07-07T00:00:33.511Z,1009.12
2017-07-07T00:01:14.046Z,1009.14
2017-07-07T00:01:54.587Z,1009.12
2017-07-07T00:02:35.138Z,1009.09
2017-07-07T00:03:15.679Z,1009.08
2017-07-07T00:03:56.225Z,1009.08
2017-07-07T00:04:36.771Z,1009.08
2017-07-07T00:05:17.314Z,1009.06
2017-07-07T00:05:57.859Z,1009.01
2017-07-07T00:06:38.402Z,1008.94
2017-07-07T00:07:18.947Z,1008.91
2017-07-07T00:07:59.485Z,1008.91
2017-07-07T00:08:40.075Z,1008.9
2017-07-07T00:09:20.565Z,1008.94
2017-07-07T00:10:01.113Z,1009.03
2017-07-07T00:10:41.648Z,1009.03
2017-07-07T00:11:22.195Z,1009.05
2017-07-07T00:12:02.735Z,1009.05
2017-07-07T00:12:43.277Z,1009.02
2017-07-07T00:13:23.823Z,1009.02
2017-07-07T00:14:04.367Z,1009.02
2017-07-07T00:14:44.909Z,1008.99
2017-07-07T00:15:25.452Z,1009.01
2017-07-07T00:16:05.992Z,1008.95
2017-07-07T00:16:46.530Z,1008.97
2017-07-07T00:17:27.072Z,1008.92
2017-07-07T00:18:07.617Z,1008.82
2017-07-07T00:18:48.154Z,1008.72
2017-07-07T00:19:28.689Z,1008.67
2017-07-07T00:20:09.233Z,1008.67
2017-07-07T00:20:49.827Z,1008.66
2017-07-07T00:21:30.315Z,1008.62
2017-07-07T00:22:10.850Z,1008.7
2017-07-07T00:22:51.397Z,1008.74
2017-07-07T00:23:31.930Z,1008.78
2017-07-07T00:24:12.517Z,1008.82
2017-07-07T00:24:53.054Z,1008.83
2017-07-07T00:25:33.599Z,1008.8
2017-07-07T00:26:14.140Z,1008.79
2017-07-07T00:26:54.680Z,1008.73
2017-07-07T00:27:35.218Z,1008.7
2017-07-07T00:28:15.764Z,1008.7
2017-07-07T00:28:56.306Z,1008.68
2017-07-07T00:29:36.852Z,1008.69
2017-07-07T00:30:17.397Z,1008.69
2017-07-07T00:30:57.942Z,1008.65
2017-07-07T00:31:38.483Z,1008.69
2017-07-07T00:32:19.022Z,1008.69
2017-07-07T00:32:59.559Z,1008.71
2017-07-07T00:33:40.101Z,1008.68
2017-07-07T00:34:20.639Z,1008.68
2017-07-07T00:35:01.181Z,1008.64
2017-07-07T00:35:41.721Z,1008.67
2017-07-07T00:36:22.273Z,1008.63
2017-07-07T00:37:02.810Z,1008.66
2017-07-07T00:37:43.356Z,1008.62
2017-07-07T00:38:23.892Z,1008.61
2017-07-07T00:39:04.423Z,1008.63
2017-07-07T00:39:44.967Z,1008.64
2017-07-07T00:40:25.511Z,1008.62
2017-07-07T00:41:06.051Z,1008.6
2017-07-07T00:41:46.596Z,1008.6
2017-07-07T00:42:27.139Z,1008.61
2017-07-07T00:43:07.699Z,1008.63
2017-07-07T00:43:48.237Z,1008.66
2017-07-07T00:44:28.781Z,1008.64
2017-07-07T00:45:09.323Z,1008.65
2017-07-07T00:45:49.867Z,1008.66
2017-07-07T00:46:30.416Z,1008.65
2017-07-07T00:47:10.958Z,1008.63
2017-07-07T00:47:51.504Z,1008.66
2017-07-07T00:48:32.052Z,1008.65
2017-07-07T00:49:12.602Z,1008.67
2017-07-07T00:49:53.129Z,1008.67
2017-07-07T00:50:33.663Z,1008.72
2017-07-07T00:51:14.260Z,1008.7
2017-07-07T00:51:54.748Z,1008.7
2017-07-07T00:52:35.307Z,1008.72
2017-07-07T00:53:15.852Z,1008.67
2017-07-07T00:53:56.395Z,1008.68
2017-07-07T00:54:36.941Z,1008.67
2017-07-07T00:55:17.481Z,1008.66
2017-07-07T00:55:58.032Z,1008.66
2017-07-07T00:56:38.575Z,1008.65
2017-07-07T00:57:19.115Z,1008.62
2017-07-07T00:57:59.657Z,1008.64
2017-07-07T00:58:40.202Z,1008.63
2017-07-07T00:59:20.737Z,1008.65
2017-07-07T01:00:01.268Z,1008.63
2017-07-07T01:00:41.819Z,1008.6
2017-07-07T01:01:22.368Z,1008.6
2017-07-07T01:02:02.903Z,1008.59
2017-07-07T01:02:43.450Z,1008.6
2017-07-07T01:03:23.993Z,1008.6
2017-07-07T01:04:04.533Z,1008.58
2017-07-07T01:04:45.077Z,1008.59
2017-07-07T01:05:25.619Z,1008.59
2017-07-07T01:06:06.162Z,1008.56
2017-07-07T01:06:46.698Z,1008.59
2017-07-07T01:07:27.245Z,1008.59
2017-07-07T01:08:07.784Z,1008.64
2017-07-07T01:08:48.327Z,1008.6
2017-07-07T01:09:28.877Z,1008.59
2017-07-07T01:10:09.416Z,1008.59
2017-07-07T01:10:49.961Z,1008.59
2017-07-07T01:11:30.580Z,1008.57
2017-07-07T01:12:11.128Z,1008.6
2017-07-07T01:12:51.678Z,1008.61
2017-07-07T01:13:32.213Z,1008.64
2017-07-07T01:14:12.821Z,1008.62
2017-07-07T01:14:53.303Z,1008.65
2017-07-07T01:15:33.837Z,1008.66
2017-07-07T01:16:14.385Z,1008.63
2017-07-07T01:16:54.926Z,1008.61
2017-07-07T01:17:35.466Z,1008.61
2017-07-07T01:18:16.009Z,1008.63
2017-07-07T01:18:56.556Z,1008.61
2017-07-07T01:19:37.102Z,1008.62
2017-07-07T01:20:17.648Z,1008.69
2017-07-07T01:20:58.191Z,1008.68
2017-07-07T01:21:38.741Z,1008.69
2017-07-07T01:22:19.277Z,1008.66
2017-07-07T01:22:59.812Z,1008.66
2017-07-07T01:23:40.346Z,1008.68
2017-07-07T01:24:20.883Z,1008.67
2017-07-07T01:25:01.428Z,1008.65
2017-07-07T01:25:41.974Z,1008.64
2017-07-07T01:26:22.515Z,1008.61
2017-07-07T01:27:03.064Z,1008.6
2017-07-07T01:27:43.610Z,1008.6
2017-07-07T01:28:24.147Z,1008.56
2017-07-07T01:29:04.696Z,1008.54
2017-07-07T01:29:45.236Z,1008.52
2017-07-07T01:30:25.777Z,1008.51
2017-07-07T01:31:06.321Z,1008.52
2017-07-07T01:31:46.855Z,1008.51
2017-07-07T01:32:27.402Z,1008.49
2017-07-07T01:33:07.940Z,1008.49
2017-07-07T01:33:48.485Z,1008.47
2017-07-07T01:34:29.033Z,1008.43
2017-07-07T01:35:09.578Z,1008.41
2017-07-07T01:35:50.123Z,1008.34
2017-07-07T01:36:30.669Z,1008.33
2017-07-07T01:37:11.213Z,1008.3
2017-07-07T01:37:51.745Z,1008.28
2017-07-07T01:38:32.293Z,1008.34
2017-07-07T01:39:12.832Z,1008.37
2017-07-07T01:39:53.377Z,1008.37
2017-07-07T01:40:33.912Z,1008.41
2017-07-07T01:41:14.456Z,1008.39
2017-07-07T01:41:54.996Z,1008.38
2017-07-07T01:42:35.536Z,1008.4
2017-07-07T01:43:16.080Z,1008.41
2017-07-07T01:43:56.623Z,1008.41
2017-07-07T01:44:37.165Z,1008.4
2017-07-07T01:45:17.714Z,1008.39
2017-07-07T01:45:58.255Z,1008.38
2017-07-07T01:46:38.803Z,1008.36
2017-07-07T01:47:19.350Z,1008.38
2017-07-07T01:47:59.891Z,1008.35
2017-07-07T01:48:40.446Z,1008.33
2017-07-07T01:49:20.972Z,1008.32
2017-07-07T01:50:01.512Z,1008.31
2017-07-07T01:50:42.057Z,1008.33
2017-07-07T01:51:22.605Z,1008.32
2017-07-07T01:52:03.143Z,1008.34
2017-07-07T01:52:43.693Z,1008.31
2017-07-07T01:53:24.244Z,1008.3
2017-07-07T01:54:04.786Z,1008.29
2017-07-07T01:54:45.327Z,1008.32
2017-07-07T01:55:25.876Z,1008.31
2017-07-07T01:56:06.420Z,1008.35
2017-07-07T01:56:46.959Z,1008.32
2017-07-07T01:57:27.505Z,1008.33
2017-07-07T01:58:08.034Z,1008.32
2017-07-07T01:58:48.573Z,1008.33
2017-07-07T01:59:29.114Z,1008.41
2017-07-07T02:00:09.655Z,1008.4
2017-07-07T02:00:50.200Z,1008.37
2017-07-07T02:01:30.744Z,1008.35
2017-07-07T02:02:11.290Z,1008.34
2017-07-07T02:02:51.835Z,1008.3
2017-07-07T02:03:32.383Z,1008.27
2017-07-07T02:04:12.926Z,1008.25
2017-07-07T02:04:53.468Z,1008.23
2017-07-07T02:05:34.009Z,1008.22
2017-07-07T02:06:14.542Z,1008.23
2017-07-07T02:06:55.083Z,1008.24
2017-07-07T02:07:35.623Z,1008.26
2017-07-07T02:08:16.171Z,1008.33
2017-07-07T02:08:56.713Z,1008.31
2017-07-07T02:09:37.256Z,1008.34
2017-07-07T02:10:17.803Z,1008.38
2017-07-07T02:10:58.344Z,1008.38
2017-07-07T02:11:38.892Z,1008.37
2017-07-07T02:12:19.421Z,1008.36
2017-07-07T02:12:59.961Z,1008.29
2017-07-07T02:13:40.501Z,1008.29
2017-07-07T02:14:21.047Z,1008.26
2017-07-07T02:15:01.591Z,1008.26
2017-07-07T02:15:42.132Z,1008.23
2017-07-07T02:16:22.672Z,1008.22
2017-07-07T02:17:03.218Z,1008.24
2017-07-07T02:17:43.768Z,1008.28
2017-07-07T02:18:24.314Z,1008.29
2017-07-07T02:19:04.859Z,1008.28
2017-07-07T02:19:45.402Z,1008.25
2017-07-07T02:20:25.943Z,1008.25
2017-07-07T02:21:06.486Z,1008.29
2017-07-07T02:21:47.027Z,1008.23
2017-07-07T02:22:27.604Z,1008.19
2017-07-07T02:23:08.136Z,1008.2
2017-07-07T02:23:48.678Z,1008.22
2017-07-07T02:24:29.211Z,1008.2
2017-07-07T02:25:09.759Z,1008.24
2017-07-07T02:25:50.301Z,1008.23
2017-07-07T02:26:30.844Z,1008.27
2017-07-07T02:27:11.385Z,1008.27
2017-07-07T02:27:51.928Z,1008.23
2017-07-07T02:28:32.441Z,1008.25
2017-07-07T02:29:12.984Z,1008.26
2017-07-07T02:29:53.530Z,1008.27
2017-07-07T02:30:34.072Z,1008.24
2017-07-07T02:31:14.609Z,1008.25
2017-07-07T02:31:55.181Z,1008.23
2017-07-07T02:32:35.720Z,1008.23
2017-07-07T02:33:16.268Z,1008.23
2017-07-07T02:33:56.809Z,1008.2
2017-07-07T02:34:37.352Z,1008.18
2017-07-07T02:35:17.902Z,1008.17
2017-07-07T02:35:58.441Z,1008.16
2017-07-07T02:36:38.984Z,1008.16
2017-07-07T02:37:19.530Z,1008.14
2017-07-07T02:38:00.074Z,1008.09
2017-07-07T02:38:40.621Z,1008.14
2017-07-07T02:39:21.162Z,1008.09
2017-07-07T02:40:01.704Z,1008.11
2017-07-07T02:40:42.239Z,1008.11
2017-07-07T02:41:22.788Z,1008.11
2017-07-07T02:42:03.328Z,1008.11
2017-07-07T02:42:43.878Z,1008.14
2017-07-07T02:43:24.415Z,1008.14
2017-07-07T02:44:04.961Z,1008.17
2017-07-07T02:44:45.508Z,1008.2
2017-07-07T02:45:26.055Z,1008.2
2017-07-07T02:46:06.604Z,1008.24
2017-07-07T02:46:47.150Z,1008.26
2017-07-07T02:47:27.693Z,1008.26
2017-07-07T02:48:08.240Z,1008.25
2017-07-07T02:48:48.784Z,1008.27
2017-07-07T02:49:29.334Z,1008.3
2017-07-07T02:50:09.916Z,1008.26
2017-07-07T02:50:50.429Z,1008.28
2017-07-07T02:51:30.963Z,1008.27
2017-07-07T02:52:11.507Z,1008.25
2017-07-07T02:52:52.044Z,1008.22
2017-07-07T02:53:32.590Z,1008.21
2017-07-07T02:54:13.133Z,1008.2
2017-07-07T02:54:53.675Z,1008.19
2017-07-07T02:55:34.212Z,1008.19
2017-07-07T02:56:14.753Z,1008.17
2017-07-07T02:56:55.299Z,1008.13
2017-07-07T02:57:35.842Z,1008.12
2017-07-07T02:58:16.384Z,1008.17
2017-07-07T02:58:56.921Z,1008.17
2017-07-07T02:59:37.467Z,1008.22
2017-07-07T03:00:18.048Z,1008.17
2017-07-07T03:00:58.589Z,1008.18
2017-07-07T03:01:39.132Z,1008.17
2017-07-07T03:02:19.671Z,1008.16
2017-07-07T03:03:00.221Z,1008.2
2017-07-07T03:03:40.766Z,1008.18
2017-07-07T03:04:21.305Z,1008.18
2017-07-07T03:05:01.852Z,1008.19
2017-07-07T03:05:42.394Z,1008.2
2017-07-07T03:06:22.935Z,1008.22
2017-07-07T03:07:03.468Z,1008.23
2017-07-07T03:07:44.014Z,1008.25
2017-07-07T03:08:24.562Z,1008.23
2017-07-07T03:09:05.107Z,1008.23
2017-07-07T03:09:45.646Z,1008.26
2017-07-07T03:10:26.192Z,1008.22
2017-07-07T03:11:06.742Z,1008.25
2017-07-07T03:11:47.275Z,1008.24
2017-07-07T03:12:27.818Z,1008.25
2017-07-07T03:13:08.360Z,1008.28
2017-07-07T03:13:48.897Z,1008.25
2017-07-07T03:14:29.444Z,1008.31
2017-07-07T03:15:09.996Z,1008.32
2017-07-07T03:15:50.535Z,1008.32
2017-07-07T03:16:31.083Z,1008.34
2017-07-07T03:17:11.626Z,1008.35
2017-07-07T03:17:52.159Z,1008.34
2017-07-07T03:18:32.701Z,1008.35
2017-07-07T03:19:13.239Z,1008.37
2017-07-07T03:19:53.778Z,1008.36
2017-07-07T03:20:34.318Z,1008.4
2017-07-07T03:21:14.861Z,1008.45
2017-07-07T03:21:55.404Z,1008.45
2017-07-07T03:22:35.950Z,1008.46
2017-07-07T03:23:16.492Z,1008.47
2017-07-07T03:23:57.039Z,1008.48
2017-07-07T03:24:37.577Z,1008.48
2017-07-07T03:25:18.124Z,1008.49
2017-07-07T03:25:58.669Z,1008.5
2017-07-07T03:26:39.210Z,1008.51
2017-07-07T03:27:19.748Z,1008.52
2017-07-07T03:28:00.310Z,1008.55
2017-07-07T03:28:40.848Z,1008.52
2017-07-07T03:29:21.396Z,1008.47
2017-07-07T03:30:01.939Z,1008.56
2017-07-07T03:30:42.481Z,1008.53
2017-07-07T03:31:23.024Z,1008.56
2017-07-07T03:32:03.566Z,1008.54
2017-07-07T03:32:44.100Z,1008.53
2017-07-07T03:33:24.646Z,1008.55
2017-07-07T03:34:05.190Z,1008.56
2017-07-07T03:34:45.734Z,1008.55
2017-07-07T03:35:26.284Z,1008.59
2017-07-07T03:36:06.833Z,1008.58
2017-07-07T03:36:47.376Z,1008.59
2017-07-07T03:37:27.913Z,1008.61
2017-07-07T03:38:08.459Z,1008.57
2017-07-07T03:38:48.996Z,1008.6
2017-07-07T03:39:29.533Z,1008.6
2017-07-07T03:40:10.075Z,1008.57
2017-07-07T03:40:50.623Z,1008.57
2017-07-07T03:41:31.163Z,1008.61
2017-07-07T03:42:11.706Z,1008.57
2017-07-07T03:42:52.252Z,1008.62
2017-07-07T03:43:32.794Z,1008.62
2017-07-07T03:44:13.334Z,1008.6
2017-07-07T03:44:53.875Z,1008.64
2017-07-07T03:45:34.408Z,1008.64
2017-07-07T03:46:14.949Z,1008.64
2017-07-07T03:46:55.483Z,1008.62
2017-07-07T03:47:36.015Z,1008.67
2017-07-07T03:48:16.559Z,1008.62
2017-07-07T03:48:57.105Z,1008.66
2017-07-07T03:49:37.648Z,1008.63
2017-07-07T03:50:18.189Z,1008.64
2017-07-07T03:50:58.726Z,1008.6
2017-07-07T03:51:39.273Z,1008.62
2017-07-07T03:52:19.823Z,1008.62
2017-07-07T03:53:00.370Z,1008.64
2017-07-07T03:53:40.905Z,1008.65
2017-07-07T03:54:21.458Z,1008.62
2017-07-07T03:55:01.997Z,1008.66
2017-07-07T03:55:42.541Z,1008.68
2017-07-07T03:56:23.087Z,1008.69
2017-07-07T03:57:03.627Z,1008.71
2017-07-07T03:57:44.174Z,1008.75
2017-07-07T03:58:24.719Z,1008.75
2017-07-07T03:59:05.265Z,1008.74
2017-07-07T03:59:45.809Z,1008.75
2017-07-07T04:00:26.414Z,1008.72
2017-07-07T04:01:06.967Z,1008.71
2017-07-07T04:01:47.499Z,1008.69
2017-07-07T04:02:28.049Z,1008.72
2017-07-07T04:03:08.597Z,1008.76
2017-07-07T04:03:49.133Z,1008.74
2017-07-07T04:04:29.668Z,1008.73
2017-07-07T04:05:10.191Z,1008.72
2017-07-07T04:05:50.743Z,1008.68
2017-07-07T04:06:31.268Z,1008.76
2017-07-07T04:07:11.825Z,1008.77
2017-07-07T04:07:52.398Z,1008.75
2017-07-07T04:08:32.910Z,1008.77
2017-07-07T04:09:13.457Z,1008.77
2017-07-07T04:09:54.004Z,1008.74
2017-07-07T04:10:34.535Z,1008.75
2017-07-07T04:11:15.080Z,1008.76
2017-07-07T04:11:55.617Z,1008.72
2017-07-07T04:12:36.147Z,1008.75
2017-07-07T04:13:16.687Z,1008.74
2017-07-07T04:13:57.249Z,1008.74
2017-07-07T04:14:37.790Z,1008.76
2017-07-07T04:15:18.329Z,1008.76
2017-07-07T04:15:58.891Z,1008.77
2017-07-07T04:16:39.416Z,1008.73
2017-07-07T04:17:19.962Z,1008.77
2017-07-07T04:18:00.506Z,1008.74
2017-07-07T04:18:41.051Z,1008.78
2017-07-07T04:19:21.580Z,1008.76
2017-07-07T04:20:02.109Z,1008.75
2017-07-07T04:20:42.651Z,1008.77
2017-07-07T04:21:23.178Z,1008.76
2017-07-07T04:22:03.717Z,1008.75
2017-07-07T04:22:44.246Z,1008.75
2017-07-07T04:23:24.791Z,1008.77
2017-07-07T04:24:05.314Z,1008.8
2017-07-07T04:24:45.860Z,1008.78
2017-07-07T04:25:26.394Z,1008.8
2017-07-07T04:26:06.930Z,1008.8
2017-07-07T04:26:47.469Z,1008.78
2017-07-07T04:27:27.999Z,1008.77
2017-07-07T04:28:08.572Z,1008.75
2017-07-07T04:28:49.106Z,1008.74
2017-07-07T04:29:29.632Z,1008.71
2017-07-07T04:30:10.132Z,1008.71
2017-07-07T04:30:50.690Z,1008.73
2017-07-07T04:31:31.214Z,1008.72
2017-07-07T04:32:11.717Z,1008.72
2017-07-07T04:32:52.257Z,1008.71
2017-07-07T04:33:32.792Z,1008.77
2017-07-07T04:34:13.320Z,1008.74
2017-07-07T04:34:53.903Z,1008.78
2017-07-07T04:35:34.435Z,1008.74
2017-07-07T04:36:14.965Z,1008.79
2017-07-07T04:36:55.509Z,1008.81
2017-07-07T04:37:36.063Z,1008.81
2017-07-07T04:38:16.608Z,1008.85
2017-07-07T04:38:57.123Z,1008.82
2017-07-07T04:39:37.661Z,1008.81
2017-07-07T04:40:18.218Z,1008.81
2017-07-07T04:40:58.743Z,1008.85
2017-07-07T04:41:39.285Z,1008.81
2017-07-07T04:42:19.834Z,1008.88
2017-07-07T04:43:00.362Z,1008.85
2017-07-07T04:43:40.878Z,1008.89
2017-07-07T04:44:21.391Z,1008.89
2017-07-07T04:45:01.905Z,1008.9
2017-07-07T04:45:42.487Z,1008.93
2017-07-07T04:46:23.038Z,1008.94
2017-07-07T04:47:03.554Z,1008.92
2017-07-07T04:47:44.084Z,1008.91
2017-07-07T04:48:24.599Z,1008.91
2017-07-07T04:49:05.142Z,1008.9
2017-07-07T04:49:45.685Z,1008.92
2017-07-07T04:50:26.215Z,1008.94
2017-07-07T04:51:06.759Z,1008.92
2017-07-07T04:51:47.296Z,1008.89
2017-07-07T04:52:27.830Z,1008.91
2017-07-07T04:53:08.378Z,1008.94
2017-07-07T04:53:48.922Z,1008.96
2017-07-07T04:54:29.458Z,1008.99
2017-07-07T04:55:10.019Z,1008.97
2017-07-07T04:55:50.531Z,1008.99
2017-07-07T04:56:31.070Z,1009.02
2017-07-07T04:57:11.619Z,1008.96
2017-07-07T04:57:52.136Z,1008.99
2017-07-07T04:58:32.671Z,1009
2017-07-07T04:59:13.213Z,1009.02
2017-07-07T04:59:53.758Z,1009.01
2017-07-07T05:00:34.295Z,1009.02
2017-07-07T05:01:14.850Z,1008.98
2017-07-07T05:01:55.395Z,1009.03
2017-07-07T05:02:35.941Z,1009.04
2017-07-07T05:03:16.479Z,1009.04
2017-07-07T05:03:57.025Z,1009.02
2017-07-07T05:04:37.543Z,1008.99
2017-07-07T05:05:18.088Z,1008.99
2017-07-07T05:05:58.639Z,1009
2017-07-07T05:06:39.172Z,1009.02
2017-07-07T05:07:19.709Z,1009.03
2017-07-07T05:08:00.254Z,1009
2017-07-07T05:08:40.846Z,1008.99
2017-07-07T05:09:21.366Z,1008.99
2017-07-07T05:10:01.911Z,1008.96
2017-07-07T05:10:42.443Z,1008.97
2017-07-07T05:11:22.985Z,1008.99
2017-07-07T05:12:03.527Z,1008.97
2017-07-07T05:12:44.080Z,1008.98
2017-07-07T05:13:24.626Z,1008.96
2017-07-07T05:14:05.181Z,1008.97
2017-07-07T05:14:45.719Z,1008.98
2017-07-07T05:15:26.255Z,1008.95
2017-07-07T05:16:06.799Z,1008.93
2017-07-07T05:16:47.343Z,1008.94
2017-07-07T05:17:27.884Z,1008.96
2017-07-07T05:18:08.419Z,1008.97
2017-07-07T05:18:48.954Z,1008.98
2017-07-07T05:19:29.536Z,1008.99
2017-07-07T05:20:10.110Z,1008.96
2017-07-07T05:20:50.663Z,1009
2017-07-07T05:21:31.188Z,1009
2017-07-07T05:22:11.742Z,1008.96
2017-07-07T05:22:52.282Z,1008.99
2017-07-07T05:23:32.824Z,1008.98
2017-07-07T05:24:13.374Z,1008.96
2017-07-07T05:24:53.920Z,1009
2017-07-07T05:25:34.465Z,1008.98
2017-07-07T05:26:15.008Z,1008.99
2017-07-07T05:26:55.555Z,1009.01
2017-07-07T05:27:36.221Z,1008.99
2017-07-07T05:28:16.602Z,1008.95
2017-07-07T05:28:57.148Z,1008.99
2017-07-07T05:29:37.692Z,1008.96
2017-07-07T05:30:18.234Z,1008.94
2017-07-07T05:30:58.784Z,1008.95
2017-07-07T05:31:39.331Z,1008.9
2017-07-07T05:32:19.874Z,1008.96
2017-07-07T05:33:00.409Z,1008.93
2017-07-07T05:33:40.957Z,1008.92
2017-07-07T05:34:21.509Z,1008.9
2017-07-07T05:35:02.053Z,1008.92
2017-07-07T05:35:42.580Z,1008.92
2017-07-07T05:36:23.110Z,1008.93
2017-07-07T05:37:03.647Z,1008.93
2017-07-07T05:37:44.179Z,1008.91
2017-07-07T05:38:24.701Z,1008.87
2017-07-07T05:39:05.210Z,1008.88
2017-07-07T05:39:45.742Z,1008.89
2017-07-07T05:40:26.293Z,1008.91
2017-07-07T05:41:06.823Z,1008.91
2017-07-07T05:41:47.368Z,1008.92
2017-07-07T05:42:27.907Z,1008.94
2017-07-07T05:43:08.465Z,1008.94
2017-07-07T05:43:49.019Z,1008.89
2017-07-07T05:44:29.532Z,1008.92
2017-07-07T05:45:10.081Z,1008.9
2017-07-07T05:45:50.575Z,1008.95
2017-07-07T05:46:31.123Z,1008.89
2017-07-07T05:47:11.645Z,1008.88
2017-07-07T05:47:52.175Z,1008.9
2017-07-07T05:48:32.734Z,1008.86
2017-07-07T05:49:13.278Z,1008.87
2017-07-07T05:49:53.804Z,1008.86
2017-07-07T05:50:34.340Z,1008.86
2017-07-07T05:51:14.887Z,1008.85
2017-07-07T05:51:55.428Z,1008.85
2017-07-07T05:52:35.959Z,1008.9
2017-07-07T05:53:16.516Z,1008.86
2017-07-07T05:53:57.041Z,1008.82
2017-07-07T05:54:37.571Z,1008.88
2017-07-07T05:55:18.313Z,1008.88
2017-07-07T05:55:59.090Z,1008.89
2017-07-07T05:56:39.613Z,1008.89
2017-07-07T05:57:20.158Z,1008.9
2017-07-07T05:58:00.706Z,1008.93
2017-07-07T05:58:41.239Z,1008.87
2017-07-07T05:59:21.782Z,1008.88
2017-07-07T06:00:02.335Z,1008.84
2017-07-07T06:00:42.874Z,1008.87
2017-07-07T06:01:23.408Z,1008.84
2017-07-07T06:02:03.942Z,1008.88
2017-07-07T06:02:44.470Z,1008.82
2017-07-07T06:03:25.011Z,1008.87
2017-07-07T06:04:05.551Z,1008.83
2017-07-07T06:04:46.078Z,1008.83
2017-07-07T06:05:26.611Z,1008.81
2017-07-07T06:06:07.157Z,1008.83
2017-07-07T06:06:47.660Z,1008.78
2017-07-07T06:07:28.191Z,1008.79
2017-07-07T06:08:08.694Z,1008.8
2017-07-07T06:08:49.230Z,1008.79
2017-07-07T06:09:29.772Z,1008.79
2017-07-07T06:10:10.302Z,1008.77
2017-07-07T06:10:50.844Z,1008.76
2017-07-07T06:11:31.376Z,1008.78
2017-07-07T06:12:11.919Z,1008.8
2017-07-07T06:12:52.419Z,1008.72
2017-07-07T06:13:32.957Z,1008.74
2017-07-07T06:14:13.492Z,1008.75
2017-07-07T06:14:54.023Z,1008.77
2017-07-07T06:15:34.567Z,1008.75
2017-07-07T06:16:15.089Z,1008.75
2017-07-07T06:16:55.628Z,1008.74
2017-07-07T06:17:36.168Z,1008.77
2017-07-07T06:18:16.714Z,1008.81
2017-07-07T06:18:57.266Z,1008.77
2017-07-07T06:19:37.805Z,1008.78
2017-07-07T06:20:18.353Z,1008.76
2017-07-07T06:20:58.829Z,1008.84
2017-07-07T06:21:39.342Z,1008.8
2017-07-07T06:22:19.860Z,1008.84
2017-07-07T06:23:00.402Z,1008.82
2017-07-07T06:23:40.932Z,1008.85
2017-07-07T06:24:21.484Z,1008.84
2017-07-07T06:25:02.032Z,1008.9
2017-07-07T06:25:42.576Z,1008.89
2017-07-07T06:26:23.145Z,1008.86
2017-07-07T06:27:03.689Z,1008.86
2017-07-07T06:27:44.238Z,1008.86
2017-07-07T06:28:24.772Z,1008.9
2017-07-07T06:29:05.320Z,1008.87
2017-07-07T06:29:45.865Z,1008.82
2017-07-07T06:30:26.413Z,1008.87
2017-07-07T06:31:06.958Z,1008.82
2017-07-07T06:31:47.497Z,1008.85
2017-07-07T06:32:28.042Z,1008.82
2017-07-07T06:33:08.562Z,1008.82
2017-07-07T06:33:49.113Z,1008.79
2017-07-07T06:34:29.661Z,1008.81
2017-07-07T06:35:10.203Z,1008.79
2017-07-07T06:35:50.749Z,1008.8
2017-07-07T06:36:31.289Z,1008.78
2017-07-07T06:37:11.838Z,1008.74
2017-07-07T06:37:52.383Z,1008.74
2017-07-07T06:38:32.928Z,1008.78
2017-07-07T06:39:13.474Z,1008.7
2017-07-07T06:39:54.023Z,1008.71
2017-07-07T06:40:34.570Z,1008.72
2017-07-07T06:41:15.126Z,1008.75
2017-07-07T06:41:55.672Z,1008.68
2017-07-07T06:42:36.219Z,1008.68
2017-07-07T06:43:16.772Z,1008.66
2017-07-07T06:43:57.322Z,1008.66
2017-07-07T06:44:37.871Z,1008.59
2017-07-07T06:45:18.418Z,1008.63
2017-07-07T06:45:58.962Z,1008.6
2017-07-07T06:46:39.496Z,1008.62
2017-07-07T06:47:20.044Z,1008.59
2017-07-07T06:48:00.580Z,1008.6
2017-07-07T06:48:41.128Z,1008.57
2017-07-07T06:49:21.669Z,1008.59
2017-07-07T06:50:02.215Z,1008.57
2017-07-07T06:50:42.763Z,1008.54
2017-07-07T06:51:23.314Z,1008.53
2017-07-07T06:52:03.864Z,1008.51
2017-07-07T06:52:44.416Z,1008.5
2017-07-07T06:53:24.964Z,1008.49
2017-07-07T06:54:05.510Z,1008.44
2017-07-07T06:54:46.054Z,1008.45
2017-07-07T06:55:26.596Z,1008.42
2017-07-07T06:56:07.206Z,1008.43
2017-07-07T06:56:47.750Z,1008.44
2017-07-07T06:57:28.302Z,1008.38
2017-07-07T06:58:08.847Z,1008.37
2017-07-07T06:58:49.383Z,1008.4
2017-07-07T06:59:29.927Z,1008.47
2017-07-07T07:00:10.476Z,1008.42
2017-07-07T07:00:51.026Z,1008.41
2017-07-07T07:01:31.579Z,1008.4
2017-07-07T07:02:12.125Z,1008.4
2017-07-07T07:02:52.728Z,1008.4
2017-07-07T07:03:33.221Z,1008.35
2017-07-07T07:04:13.768Z,1008.34
2017-07-07T07:04:54.317Z,1008.34
2017-07-07T07:05:34.865Z,1008.33
2017-07-07T07:06:15.415Z,1008.35
2017-07-07T07:06:55.963Z,1008.32
2017-07-07T07:07:36.513Z,1008.32
2017-07-07T07:08:17.056Z,1008.32
2017-07-07T07:08:57.603Z,1008.32
2017-07-07T07:09:38.142Z,1008.33
2017-07-07T07:10:18.690Z,1008.33
2017-07-07T07:10:59.237Z,1008.37
2017-07-07T07:11:39.787Z,1008.32
2017-07-07T07:12:20.332Z,1008.29
2017-07-07T07:13:00.878Z,1008.31
2017-07-07T07:13:41.428Z,1008.37
2017-07-07T07:14:21.979Z,1008.36
2017-07-07T07:15:02.522Z,1008.37
2017-07-07T07:15:43.068Z,1008.35
2017-07-07T07:16:23.613Z,1008.39
2017-07-07T07:17:04.164Z,1008.36
2017-07-07T07:17:44.716Z,1008.36
2017-07-07T07:18:25.265Z,1008.33
2017-07-07T07:19:05.816Z,1008.35
2017-07-07T07:19:46.361Z,1008.35
2017-07-07T07:20:26.954Z,1008.36
2017-07-07T07:21:07.501Z,1008.38
2017-07-07T07:21:48.042Z,1008.38
2017-07-07T07:22:28.591Z,1008.37
2017-07-07T07:23:09.140Z,1008.39
2017-07-07T07:23:49.675Z,1008.33
2017-07-07T07:24:30.224Z,1008.4
2017-07-07T07:25:10.777Z,1008.35
2017-07-07T07:25:51.320Z,1008.28
2017-07-07T07:26:31.864Z,1008.29
2017-07-07T07:27:12.416Z,1008.3
2017-07-07T07:27:52.962Z,1008.33
2017-07-07T07:28:33.552Z,1008.3
2017-07-07T07:29:14.100Z,1008.33
2017-07-07T07:29:54.648Z,1008.36
2017-07-07T07:30:35.195Z,1008.37
2017-07-07T07:31:15.746Z,1008.34
2017-07-07T07:31:56.286Z,1008.25
2017-07-07T07:32:36.835Z,1008.35
2017-07-07T07:33:17.385Z,1008.3
2017-07-07T07:33:57.936Z,1008.27
2017-07-07T07:34:38.487Z,1008.31
2017-07-07T07:35:19.037Z,1008.3
2017-07-07T07:35:59.588Z,1008.3
2017-07-07T07:36:40.139Z,1008.29
2017-07-07T07:37:20.683Z,1008.25
2017-07-07T07:38:01.230Z,1008.27
2017-07-07T07:38:41.779Z,1008.28
2017-07-07T07:39:22.325Z,1008.29
2017-07-07T07:40:02.872Z,1008.31
2017-07-07T07:40:43.506Z,1008.29
2017-07-07T07:41:24.056Z,1008.32
2017-07-07T07:42:04.609Z,1008.3
2017-07-07T07:42:45.160Z,1008.31
2017-07-07T07:43:25.710Z,1008.33
2017-07-07T07:44:06.257Z,1008.3
2017-07-07T07:44:46.803Z,1008.31
2017-07-07T07:45:27.353Z,1008.31
2017-07-07T07:46:07.897Z,1008.34
2017-07-07T07:46:48.439Z,1008.26
2017-07-07T07:47:28.980Z,1008.33
2017-07-07T07:48:09.531Z,1008.3
2017-07-07T07:48:50.079Z,1008.33
2017-07-07T07:49:30.625Z,1008.26
2017-07-07T07:50:11.170Z,1008.33
2017-07-07T07:50:51.716Z,1008.29
2017-07-07T07:51:32.273Z,1008.36
2017-07-07T07:52:12.810Z,1008.35
2017-07-07T07:52:53.361Z,1008.38
2017-07-07T07:53:33.897Z,1008.36
2017-07-07T07:54:14.449Z,1008.36
2017-07-07T07:54:54.998Z,1008.36
2017-07-07T07:55:35.549Z,1008.36
2017-07-07T07:56:16.098Z,1008.38
2017-07-07T07:56:56.648Z,1008.46
2017-07-07T07:57:37.196Z,1008.41
2017-07-07T07:58:17.763Z,1008.44
2017-07-07T07:58:58.310Z,1008.47
2017-07-07T07:59:38.871Z,1008.48
2017-07-07T08:00:19.421Z,1008.4
2017-07-07T08:00:59.971Z,1008.42
2017-07-07T08:01:40.514Z,1008.42
2017-07-07T08:02:21.063Z,1008.44
2017-07-07T08:03:01.612Z,1008.44
2017-07-07T08:03:42.161Z,1008.42
2017-07-07T08:04:22.710Z,1008.45
2017-07-07T08:05:03.259Z,1008.5
2017-07-07T08:05:43.808Z,1008.49
2017-07-07T08:06:24.352Z,1008.48
2017-07-07T08:07:04.901Z,1008.49
2017-07-07T08:07:45.453Z,1008.44
2017-07-07T08:08:26.002Z,1008.52
2017-07-07T08:09:06.553Z,1008.51
2017-07-07T08:09:47.104Z,1008.51
2017-07-07T08:10:27.650Z,1008.53
2017-07-07T08:11:08.209Z,1008.54
2017-07-07T08:11:48.757Z,1008.56
2017-07-07T08:12:29.311Z,1008.56